createdAt,value
2023-08-03T00:01:05.113Z,99996.34
2023-08-03T00:03:33.275Z,99994.66
2023-08-03T00:06:02.915Z,99991.56
2023-08-03T00:08:30.931Z,99993.63
2023-08-03T00:10:58.874Z,99999.13
2023-08-03T00:13:26.828Z,100001.28
2023-08-03T00:15:54.813Z,100010.72
2023-08-03T00:18:22.776Z,100007.44
2023-08-03T00:20:51.606Z,100002.50
2023-08-03T00:23:20.991Z,100007.34
2023-08-03T00:25:48.924Z,100011.84
2023-08-03T00:28:17.002Z,100006.94
2023-08-03T00:30:45.054Z,100010.16
2023-08-03T00:33:13.017Z,100006.03
2023-08-03T00:35:40.959Z,100005.63
2023-08-03T00:38:08.924Z,99996.59
2023-08-03T00:40:38.301Z,100003.91
2023-08-03T00:43:06.465Z,99998.19
2023-08-03T00:45:34.488Z,100001.38
2023-08-03T00:48:02.537Z,100014.81
2023-08-03T00:50:30.590Z,100000.31
2023-08-03T00:52:58.702Z,100004.53
2023-08-03T00:55:26.707Z,100007.56
2023-08-03T00:57:56.076Z,100001.19
2023-08-03T01:00:25.676Z,100000.19
2023-08-03T01:02:53.822Z,100004.41
2023-08-03T01:05:21.871Z,99998.59
2023-08-03T01:07:49.845Z,100001.00
2023-08-03T01:10:18.022Z,100002.38
2023-08-03T01:12:46.344Z,100005.41
2023-08-03T01:15:15.843Z,100006.31
2023-08-03T01:17:43.882Z,100008.97
2023-08-03T01:20:12.547Z,99996.66
2023-08-03T01:22:44.021Z,100003.56
2023-08-03T01:25:12.434Z,100007.38
2023-08-03T01:27:40.463Z,100011.38
2023-08-03T01:30:09.503Z,100006.72
2023-08-03T01:32:37.626Z,100009.66
2023-08-03T01:35:07.372Z,99998.88
2023-08-03T01:37:36.380Z,100014.22
2023-08-03T01:40:07.043Z,99998.72
2023-08-03T01:42:35.168Z,99994.34
2023-08-03T01:45:03.162Z,100003.47
2023-08-03T01:47:31.136Z,100013.41
2023-08-03T01:49:59.087Z,100018.25
2023-08-03T01:52:27.166Z,100011.13
2023-08-03T01:54:55.280Z,100022.91
2023-08-03T01:57:24.601Z,100010.88
2023-08-03T01:59:52.558Z,100017.50
2023-08-03T02:02:20.504Z,100017.69
2023-08-03T02:04:48.456Z,100013.59
2023-08-03T02:07:19.131Z,100015.78
2023-08-03T02:09:47.060Z,100022.25
2023-08-03T02:12:15.005Z,100027.13
2023-08-03T02:14:44.320Z,100031.94
2023-08-03T02:17:12.324Z,100023.69
2023-08-03T02:19:40.265Z,100024.09
2023-08-03T02:22:08.579Z,100028.91
2023-08-03T02:24:36.559Z,100025.44
2023-08-03T02:27:04.527Z,100029.88
2023-08-03T02:29:32.540Z,100024.50
2023-08-03T02:32:02.074Z,100028.78
2023-08-03T02:34:30.031Z,100031.44
2023-08-03T02:36:57.963Z,100022.38
2023-08-03T02:39:25.911Z,100024.19
2023-08-03T02:41:54.253Z,100026.50
2023-08-03T02:44:22.826Z,100038.16
2023-08-03T02:46:50.785Z,100040.31
2023-08-03T02:49:20.130Z,100033.69
2023-08-03T02:51:48.098Z,100032.81
2023-08-03T02:54:16.086Z,100042.88
2023-08-03T02:56:44.059Z,100039.03
2023-08-03T02:59:12.233Z,100034.22
2023-08-03T03:01:40.276Z,100039.50
2023-08-03T03:04:08.291Z,100046.44
2023-08-03T03:06:39.852Z,100044.88
2023-08-03T03:09:07.933Z,100050.41
2023-08-03T03:11:35.874Z,100043.53
2023-08-03T03:14:04.337Z,100045.13
2023-08-03T03:16:32.317Z,100043.88
2023-08-03T03:19:00.261Z,100043.88
2023-08-03T03:21:28.299Z,100047.78
2023-08-03T03:23:57.684Z,100045.13
2023-08-03T03:26:25.619Z,100052.44
2023-08-03T03:28:53.568Z,100058.34
2023-08-03T03:31:21.535Z,100063.03
2023-08-03T03:33:49.505Z,100052.63
2023-08-03T03:36:17.445Z,100064.03
2023-08-03T03:38:45.388Z,100060.38
2023-08-03T03:41:14.715Z,100055.72
2023-08-03T03:43:42.669Z,100062.31
2023-08-03T03:46:10.668Z,100052.38
2023-08-03T03:48:38.724Z,100062.78
2023-08-03T03:51:07.088Z,100059.47
2023-08-03T03:53:35.091Z,100056.28
2023-08-03T03:56:04.245Z,100048.00
2023-08-03T03:58:33.744Z,100049.66
2023-08-03T04:01:01.800Z,100051.28
2023-08-03T04:03:29.913Z,100050.31
2023-08-03T04:05:57.894Z,100049.94
2023-08-03T04:08:25.945Z,100062.78
2023-08-03T04:10:53.884Z,100066.34
2023-08-03T04:13:21.847Z,100067.91
2023-08-03T04:15:51.207Z,100068.81
2023-08-03T04:18:19.152Z,100065.72
2023-08-03T04:20:47.084Z,100063.78
2023-08-03T04:23:15.168Z,100077.31
2023-08-03T04:25:43.107Z,100071.03
2023-08-03T04:28:11.229Z,100069.00
2023-08-03T04:30:39.293Z,100073.06
2023-08-03T04:33:08.639Z,100067.53
2023-08-03T04:35:36.564Z,100078.16
2023-08-03T04:38:04.520Z,100074.91
2023-08-03T04:40:32.493Z,100077.91
2023-08-03T04:43:00.436Z,100079.91
2023-08-03T04:45:28.434Z,100083.72
2023-08-03T04:47:56.473Z,100076.88
2023-08-03T04:50:25.943Z,100077.63
2023-08-03T04:52:53.909Z,100085.72
2023-08-03T04:55:21.848Z,100080.88
2023-08-03T04:57:49.821Z,100082.97
2023-08-03T05:00:20.041Z,100079.53
2023-08-03T05:02:49.933Z,100064.22
2023-08-03T05:05:18.035Z,100084.53
2023-08-03T05:07:47.393Z,100080.66
2023-08-03T05:10:15.337Z,100091.91
2023-08-03T05:12:44.334Z,100084.09
2023-08-03T05:15:12.286Z,100089.56
2023-08-03T05:17:40.508Z,100086.22
2023-08-03T05:20:10.257Z,100094.75
2023-08-03T05:22:38.230Z,100095.25
2023-08-03T05:25:08.193Z,100088.03
2023-08-03T05:27:36.421Z,100107.19
2023-08-03T05:30:04.637Z,100111.94
2023-08-03T05:32:32.654Z,100106.72
2023-08-03T05:35:00.672Z,100109.31
2023-08-03T05:37:28.663Z,100112.00
2023-08-03T05:39:56.919Z,100111.88
2023-08-03T05:42:27.056Z,100113.00
2023-08-03T05:44:55.379Z,100105.84
2023-08-03T05:47:23.372Z,100113.53
2023-08-03T05:49:51.400Z,100114.91
2023-08-03T05:52:19.382Z,100121.59
2023-08-03T05:54:50.848Z,100125.84
2023-08-03T05:57:20.001Z,100115.22
2023-08-03T05:59:49.397Z,100128.69
2023-08-03T06:02:30.718Z,100120.81
2023-08-03T06:04:58.714Z,100125.25
2023-08-03T06:07:27.058Z,100122.38
2023-08-03T06:09:55.106Z,100126.59
2023-08-03T06:12:23.121Z,100127.97
2023-08-03T06:14:52.464Z,100126.72
2023-08-03T06:17:24.222Z,100128.91
2023-08-03T06:19:53.177Z,100133.69
2023-08-03T06:22:23.468Z,100134.34
2023-08-03T06:24:52.693Z,100127.81
2023-08-03T06:27:20.654Z,100128.25
2023-08-03T06:29:48.658Z,100132.63
2023-08-03T06:32:25.418Z,100127.09
2023-08-03T06:34:53.486Z,100134.78
2023-08-03T06:37:22.187Z,100124.75
2023-08-03T06:39:51.353Z,100127.75
2023-08-03T06:42:19.399Z,100128.34
2023-08-03T06:44:47.572Z,100134.44
2023-08-03T06:47:15.582Z,100124.03
2023-08-03T06:49:44.987Z,100125.59
2023-08-03T06:52:13.157Z,100120.78
2023-08-03T06:54:41.268Z,100123.13
2023-08-03T06:57:09.262Z,100130.84
2023-08-03T06:59:37.211Z,100126.06
2023-08-03T07:02:05.428Z,100124.13
2023-08-03T07:04:33.404Z,100114.84
2023-08-03T07:07:02.770Z,100119.06
2023-08-03T07:09:30.731Z,100113.53
2023-08-03T07:12:00.818Z,100113.34
2023-08-03T07:14:28.878Z,100116.78
2023-08-03T07:16:56.828Z,100111.25
2023-08-03T07:19:24.774Z,100120.25
2023-08-03T07:21:52.752Z,100126.56
2023-08-03T07:24:22.177Z,100095.28
2023-08-03T07:26:50.590Z,100128.78
2023-08-03T07:29:18.595Z,100121.63
2023-08-03T07:31:46.860Z,100132.41
2023-08-03T07:34:15.376Z,100128.59
2023-08-03T07:36:43.394Z,100128.25
2023-08-03T07:39:11.338Z,100123.00
2023-08-03T07:41:40.784Z,100125.00
2023-08-03T07:44:08.749Z,100124.31
2023-08-03T07:46:36.792Z,100123.91
2023-08-03T07:49:04.836Z,100132.19
2023-08-03T07:51:32.894Z,100116.22
2023-08-03T07:54:00.888Z,100123.69
2023-08-03T07:56:29.705Z,100122.34
2023-08-03T07:59:00.180Z,100120.59
2023-08-03T08:01:28.449Z,100114.28
2023-08-03T08:03:56.566Z,100118.91
2023-08-03T08:06:24.626Z,100114.19
2023-08-03T08:08:53.785Z,100120.44
2023-08-03T08:11:21.847Z,100116.00
2023-08-03T08:13:49.945Z,100112.34
2023-08-03T08:16:19.691Z,100098.09
2023-08-03T08:18:47.868Z,100094.66
2023-08-03T08:21:15.897Z,100115.63
2023-08-03T08:23:43.962Z,100107.00
2023-08-03T08:26:14.044Z,100111.31
2023-08-03T08:28:47.931Z,100105.50
2023-08-03T08:31:27.588Z,100114.28
2023-08-03T08:33:55.685Z,100105.97
2023-08-03T08:36:23.819Z,100107.03
2023-08-03T08:38:51.774Z,100098.97
2023-08-03T08:41:19.741Z,100105.22
2023-08-03T08:43:47.916Z,100097.13
2023-08-03T08:46:16.025Z,100103.09
2023-08-03T08:51:57.145Z,100099.31
2023-08-03T09:01:51.271Z,100103.34
2023-08-03T09:04:32.345Z,100113.34
2023-08-03T09:07:01.515Z,100100.09
2023-08-03T09:09:30.848Z,100096.56
2023-08-03T09:11:58.938Z,100093.63
2023-08-03T09:14:27.099Z,100100.94
2023-08-03T09:16:55.229Z,100097.69
2023-08-03T09:20:43.893Z,100100.38
2023-08-03T09:25:06.917Z,100095.00
2023-08-03T09:32:50.355Z,100097.56
2023-08-03T09:35:21.918Z,100096.25
2023-08-03T09:37:51.215Z,100106.50
2023-08-03T09:40:21.362Z,100095.66
2023-08-03T09:42:50.304Z,100093.72
2023-08-03T09:47:52.175Z,100090.56
2023-08-03T09:50:24.272Z,100090.03
2023-08-03T09:52:54.556Z,100085.69
2023-08-03T09:55:29.459Z,100078.31
2023-08-03T09:58:02.369Z,100077.50
2023-08-03T10:00:31.650Z,100065.88
2023-08-03T10:03:06.006Z,100081.78
2023-08-03T10:05:40.825Z,100083.84
2023-08-03T10:08:15.680Z,100082.28
2023-08-03T10:10:48.544Z,100079.69
2023-08-03T10:13:17.652Z,100076.94
2023-08-03T10:15:45.662Z,100072.66
2023-08-03T10:18:14.923Z,100065.41
2023-08-03T10:20:45.324Z,100063.53
2023-08-03T10:23:16.366Z,100053.25
2023-08-03T10:25:55.072Z,100048.34
2023-08-03T10:28:24.321Z,100051.00
2023-08-03T10:31:12.171Z,100044.19
2023-08-03T10:34:05.689Z,100048.22
2023-08-03T10:36:42.267Z,100037.09
2023-08-03T10:39:15.201Z,100052.78
2023-08-03T10:41:43.406Z,100045.31
2023-08-03T10:44:29.722Z,100042.00
2023-08-03T10:47:01.462Z,100040.59
2023-08-03T10:49:51.355Z,100030.16
2023-08-03T10:52:26.022Z,100039.22
2023-08-03T10:54:54.312Z,100030.78
2023-08-03T10:57:26.344Z,100029.81
2023-08-03T10:59:55.660Z,100031.97
2023-08-03T11:02:29.999Z,100015.13
2023-08-03T11:04:59.370Z,100031.00
2023-08-03T11:07:31.822Z,100022.25
2023-08-03T11:10:00.025Z,100004.47
2023-08-03T11:12:29.477Z,100010.34
2023-08-03T11:14:59.081Z,99998.59
2023-08-03T11:17:28.818Z,100003.38
2023-08-03T11:19:58.038Z,100001.91
2023-08-03T11:22:28.335Z,100002.78
2023-08-03T11:24:59.607Z,100000.50
2023-08-03T11:27:27.715Z,99999.88
2023-08-03T11:29:57.846Z,99999.50
2023-08-03T11:32:27.658Z,99985.75
2023-08-03T11:35:00.443Z,99986.97
2023-08-03T11:37:33.611Z,99988.31
2023-08-03T11:40:05.321Z,99991.81
2023-08-03T11:42:35.770Z,99991.56
2023-08-03T11:45:03.735Z,99979.81
2023-08-03T11:47:44.555Z,99973.66
2023-08-03T11:50:13.703Z,99977.78
2023-08-03T11:52:43.200Z,99977.63
2023-08-03T11:55:11.638Z,99971.00
2023-08-03T12:00:25.601Z,99967.63
2023-08-03T12:02:54.879Z,99951.19
2023-08-03T12:05:23.324Z,99956.69
2023-08-03T12:10:29.620Z,99958.38
2023-08-03T12:17:59.376Z,99952.63
2023-08-03T12:20:27.603Z,99945.13
2023-08-03T12:23:01.783Z,99959.31
2023-08-03T12:25:32.265Z,99937.41
2023-08-03T12:28:01.678Z,99946.19
2023-08-03T12:30:29.688Z,99946.97
2023-08-03T12:32:57.698Z,99939.31
2023-08-03T12:35:25.786Z,99939.63
2023-08-03T12:37:58.180Z,99937.53
2023-08-03T12:40:27.280Z,99933.97
2023-08-03T12:42:57.299Z,99923.50
2023-08-03T12:45:26.407Z,99928.34
2023-08-03T12:47:56.648Z,99927.41
2023-08-03T12:50:24.889Z,99917.72
2023-08-03T12:52:54.470Z,99910.50
2023-08-03T12:55:22.732Z,99923.94
2023-08-03T12:57:51.632Z,99928.38
2023-08-03T13:00:24.210Z,99922.41
2023-08-03T13:02:52.331Z,99922.41
2023-08-03T13:05:20.743Z,99917.84
2023-08-03T13:07:48.850Z,99922.97
2023-08-03T13:10:16.859Z,99923.25
2023-08-03T13:12:44.839Z,99919.53
2023-08-03T13:15:13.207Z,99922.13
2023-08-03T13:17:42.837Z,99925.31
2023-08-03T13:20:11.680Z,99911.78
2023-08-03T13:22:40.070Z,99909.56
2023-08-03T13:25:08.680Z,99916.47
2023-08-03T13:27:36.613Z,99919.75
2023-08-03T13:30:04.974Z,99925.16
2023-08-03T13:32:33.013Z,99921.88
2023-08-03T13:35:02.459Z,99924.22
2023-08-03T13:37:30.420Z,99915.84
2023-08-03T13:39:58.348Z,99913.97
2023-08-03T13:42:26.294Z,99906.38
2023-08-03T13:44:54.231Z,99898.25
2023-08-03T13:47:22.203Z,99905.84
2023-08-03T13:49:50.171Z,99912.31
2023-08-03T13:52:19.552Z,99903.03
2023-08-03T13:54:47.462Z,99901.22
2023-08-03T13:57:34.747Z,99895.00
2023-08-03T14:00:08.027Z,99865.97
2023-08-03T14:05:08.002Z,99898.16
2023-08-03T14:22:45.892Z,99903.09
2023-08-03T14:27:52.728Z,99890.53
2023-08-03T14:30:21.450Z,99892.69
2023-08-03T14:32:49.798Z,99897.31
2023-08-03T14:37:51.191Z,99895.66
2023-08-03T14:40:19.154Z,99892.94
2023-08-03T14:42:56.391Z,99894.03
2023-08-03T14:45:35.107Z,99890.25
2023-08-03T14:48:07.248Z,99886.00
2023-08-03T14:50:38.030Z,99888.28
2023-08-03T14:53:07.469Z,99892.34
2023-08-03T14:58:23.251Z,99882.34
2023-08-03T15:00:51.201Z,99879.66
2023-08-03T15:03:19.873Z,99878.84
2023-08-03T15:05:48.973Z,99874.91
2023-08-03T15:08:18.631Z,99873.88
2023-08-03T15:10:50.414Z,99886.06
2023-08-03T15:13:19.422Z,99885.53
2023-08-03T15:15:51.803Z,99888.78
2023-08-03T15:18:23.432Z,99885.81
2023-08-03T15:23:24.414Z,99888.06
2023-08-03T15:26:00.650Z,99886.97
2023-08-03T15:31:01.761Z,99892.63
2023-08-03T15:33:32.798Z,99890.44
2023-08-03T15:36:04.430Z,99890.75
2023-08-03T15:38:39.585Z,99889.66
2023-08-03T15:41:10.420Z,99894.25
2023-08-03T15:43:44.208Z,99897.22
2023-08-03T15:46:20.160Z,99894.53
2023-08-03T15:51:25.056Z,99896.69
2023-08-03T15:54:04.044Z,99889.13
2023-08-03T15:56:39.418Z,99890.16
2023-08-03T15:59:07.603Z,99888.53
2023-08-03T16:01:35.610Z,99894.94
2023-08-03T16:04:03.598Z,99892.94
2023-08-03T16:06:31.490Z,99892.13
2023-08-03T16:09:00.787Z,99899.47
2023-08-03T16:11:51.409Z,99899.25
2023-08-03T16:14:16.614Z,99884.63
2023-08-03T16:16:44.897Z,99897.22
2023-08-03T16:19:15.815Z,99898.59
2023-08-03T16:21:43.997Z,99896.97
2023-08-03T16:24:13.429Z,99895.94
2023-08-03T16:26:42.453Z,99899.72
2023-08-03T16:29:10.356Z,99902.44
2023-08-03T16:31:39.102Z,99899.16
2023-08-03T16:34:12.438Z,99900.75
2023-08-03T16:36:42.264Z,99902.41
2023-08-03T16:39:10.735Z,99900.78
2023-08-03T16:41:40.114Z,99898.63
2023-08-03T16:44:08.063Z,99888.84
2023-08-03T16:46:36.014Z,99904.47
2023-08-03T16:49:04.571Z,99908.25
2023-08-03T16:51:32.581Z,99912.28
2023-08-03T16:54:00.501Z,99906.09
2023-08-03T16:56:28.451Z,99904.72
2023-08-03T16:58:57.739Z,99909.28
2023-08-03T17:01:25.779Z,99910.34
2023-08-03T17:03:53.741Z,99916.22
2023-08-03T17:06:22.335Z,99919.97
2023-08-03T17:08:50.285Z,99919.94
2023-08-03T17:11:18.329Z,99925.31
2023-08-03T17:13:46.275Z,99915.19
2023-08-03T17:16:15.610Z,99919.25
2023-08-03T17:18:43.586Z,99911.34
2023-08-03T17:21:11.543Z,99919.69
2023-08-03T17:23:39.459Z,99915.00
2023-08-03T17:26:07.365Z,99911.16
2023-08-03T17:28:35.331Z,99911.63
2023-08-03T17:31:05.085Z,99912.84
2023-08-03T17:33:34.867Z,99911.16
2023-08-03T17:36:10.362Z,99916.66
2023-08-03T17:38:38.494Z,99917.28
2023-08-03T17:41:06.512Z,99914.53
2023-08-03T17:43:34.501Z,99910.16
2023-08-03T17:46:07.939Z,99919.25
2023-08-03T17:48:37.922Z,99919.94
2023-08-03T17:51:07.551Z,99920.34
2023-08-03T17:53:36.007Z,99924.78
2023-08-03T17:56:11.015Z,99911.22
2023-08-03T17:58:40.550Z,99935.56
2023-08-03T18:01:14.043Z,99928.13
2023-08-03T18:03:45.577Z,99925.75
2023-08-03T18:06:16.039Z,99930.22
2023-08-03T18:08:45.078Z,99932.03
2023-08-03T18:11:13.711Z,99933.56
2023-08-03T18:13:41.766Z,99936.91
2023-08-03T18:16:10.510Z,99942.91
2023-08-03T18:18:40.771Z,99937.38
2023-08-03T18:21:15.278Z,99947.22
2023-08-03T18:23:43.222Z,99942.22
2023-08-03T18:26:11.128Z,99947.25
2023-08-03T18:28:39.080Z,99950.09
2023-08-03T18:31:08.754Z,99957.31
2023-08-03T18:33:37.672Z,99956.19
2023-08-03T18:36:08.153Z,99954.59
2023-08-03T18:38:38.968Z,99968.13
2023-08-03T18:41:10.704Z,99963.16
2023-08-03T18:43:40.527Z,99961.81
2023-08-03T18:46:11.014Z,99963.66
2023-08-03T18:48:40.012Z,99958.63
2023-08-03T18:51:09.397Z,99974.47
2023-08-03T18:53:40.516Z,99972.56
2023-08-03T18:56:10.888Z,99982.22
2023-08-03T18:58:40.768Z,99974.66
2023-08-03T19:01:10.645Z,99977.56
2023-08-03T19:03:40.925Z,99978.03
2023-08-03T19:06:09.791Z,99975.78
2023-08-03T19:08:39.786Z,99984.78
2023-08-03T19:11:09.037Z,99960.59
2023-08-03T19:13:37.273Z,99977.00
2023-08-03T19:16:05.999Z,99987.59
2023-08-03T19:18:34.168Z,99967.81
2023-08-03T19:21:02.101Z,99986.44
2023-08-03T19:23:30.055Z,99983.66
2023-08-03T19:26:01.465Z,99984.44
2023-08-03T19:28:29.749Z,99989.97
2023-08-03T19:30:59.025Z,99984.09
2023-08-03T19:33:27.278Z,99991.06
2023-08-03T19:35:55.750Z,99987.81
2023-08-03T19:38:23.713Z,99986.28
2023-08-03T19:40:54.701Z,99989.34
2023-08-03T19:43:24.593Z,99995.72
2023-08-03T19:45:52.582Z,99994.00
2023-08-03T19:48:20.547Z,99988.75
2023-08-03T19:59:31.636Z,99989.25
2023-08-03T20:06:16.104Z,99995.41
2023-08-03T20:11:15.047Z,99986.44
2023-08-03T20:16:41.947Z,99979.56
2023-08-03T20:21:33.850Z,99987.47
2023-08-03T20:24:01.776Z,99983.50
2023-08-03T20:26:35.480Z,99989.09
2023-08-03T20:29:21.455Z,99990.16
2023-08-03T20:31:49.826Z,99987.34
2023-08-03T20:34:17.847Z,99987.00
2023-08-03T20:36:46.135Z,99977.69
2023-08-03T20:39:34.456Z,99984.44
2023-08-03T20:42:42.247Z,99987.56
2023-08-03T20:49:54.203Z,99995.59
2023-08-03T20:52:22.218Z,99994.09
2023-08-03T20:54:50.313Z,99986.13
2023-08-03T20:57:19.954Z,99992.50
2023-08-03T20:59:48.019Z,99988.63
2023-08-03T21:02:17.422Z,99974.94
2023-08-03T21:04:49.699Z,99983.88
2023-08-03T21:07:18.057Z,99987.38
2023-08-03T21:10:50.231Z,99991.69
2023-08-03T21:12:34.569Z,99990.06
2023-08-03T21:15:02.551Z,99990.72
2023-08-03T21:17:32.789Z,99987.22
2023-08-03T21:20:01.306Z,99991.09
2023-08-03T21:22:29.581Z,99993.88
2023-08-03T21:24:57.637Z,99985.47
2023-08-03T21:27:25.690Z,99989.97
2023-08-03T21:29:53.721Z,99996.25
2023-08-03T21:32:22.492Z,99992.16
2023-08-03T21:34:52.103Z,99989.84
2023-08-03T21:37:20.125Z,99994.00
2023-08-03T21:39:48.391Z,99987.19
2023-08-03T21:42:16.472Z,99996.97
2023-08-03T21:44:44.542Z,99991.59
2023-08-03T21:47:14.075Z,99994.16
2023-08-03T21:49:42.084Z,99992.53
2023-08-03T21:52:11.756Z,99997.88
2023-08-03T21:54:39.858Z,99998.78
2023-08-03T21:57:08.264Z,99998.78
2023-08-03T21:59:36.283Z,99995.38
2023-08-03T22:02:04.750Z,99993.97
2023-08-03T22:04:32.926Z,100002.81
2023-08-03T22:07:01.060Z,100007.84
2023-08-03T22:09:30.522Z,99998.50
2023-08-03T22:11:58.983Z,100002.03
2023-08-03T22:14:27.033Z,100006.81
2023-08-03T22:16:55.138Z,100001.09
2023-08-03T22:19:23.251Z,100003.78
2023-08-03T22:21:52.848Z,99996.06
2023-08-03T22:24:21.490Z,100000.44
2023-08-03T22:26:51.029Z,100003.78
2023-08-03T22:29:19.020Z,99995.25
2023-08-03T22:31:47.276Z,100006.03
2023-08-03T22:34:15.608Z,99999.66
2023-08-03T22:36:43.684Z,99992.59
2023-08-03T22:39:11.842Z,100003.34
2023-08-03T22:41:39.850Z,100003.88
2023-08-03T22:44:09.279Z,100010.06
2023-08-03T22:46:37.319Z,100003.50
2023-08-03T22:49:05.822Z,100004.31
2023-08-03T22:51:33.842Z,100010.47
2023-08-03T22:54:01.948Z,100001.84
2023-08-03T22:56:29.999Z,100010.25
2023-08-03T22:58:58.062Z,100014.16
2023-08-03T23:01:27.710Z,100010.06
2023-08-03T23:03:55.865Z,100015.06
2023-08-03T23:06:24.762Z,100004.06
2023-08-03T23:08:53.118Z,100004.50
2023-08-03T23:11:21.259Z,100011.81
2023-08-03T23:13:49.240Z,100009.34
2023-08-03T23:16:20.313Z,100013.69
2023-08-03T23:18:50.671Z,100013.03
2023-08-03T23:21:18.634Z,100013.25
2023-08-03T23:23:46.698Z,99996.69
2023-08-03T23:26:16.891Z,100011.25
2023-08-03T23:28:45.928Z,100004.50
2023-08-03T23:31:14.295Z,100005.34
2023-08-03T23:33:42.400Z,99997.59
2023-08-03T23:36:11.857Z,99996.66
2023-08-03T23:38:39.813Z,100003.97
2023-08-03T23:41:07.823Z,99995.16
2023-08-03T23:43:35.757Z,100011.22
2023-08-03T23:46:03.916Z,100003.81
2023-08-03T23:48:32.004Z,100011.56
2023-08-03T23:51:00.007Z,100000.91
2023-08-03T23:53:29.314Z,100013.47
2023-08-03T23:55:57.293Z,100004.84
2023-08-03T23:58:25.242Z,99995.91
